Time;durP1;ratioP1;P1;durP2;ratioP2;P2;SDS_P1;SDS_P2;PMS_P1;PMS_P2;Temp;Humidity;BMP_temperature;BMP_pressure;BME280_temperature;BME280_humidity;BME280_pressure;Samples;Min_cycle;Max_cycle;Signal;HPM_P1;HPM_P2
2023/11/13 00:02:04;;;;;;;1.40;0.73;;;18.20;63.10;;;;;;6183822;23;20577;-82
2023/11/13 00:04:35;;;;;;;1.90;0.68;;;18.20;63.20;;;;;;6159048;23;20131;-81
2023/11/13 00:07:03;;;;;;;0.77;0.52;;;18.20;62.80;;;;;;6108718;23;20467;-83
2023/11/13 00:09:29;;;;;;;0.68;0.60;;;18.20;63.10;;;;;;6158897;23;20625;-83
2023/11/13 00:11:54;;;;;;;1.40;0.68;;;18.20;63.20;;;;;;6158907;23;20167;-80
2023/11/13 00:14:21;;;;;;;1.83;0.80;;;18.20;63.00;;;;;;6183520;23;20146;-80
2023/11/13 00:16:46;;;;;;;0.90;0.70;;;18.20;63.10;;;;;;6184175;23;20131;-81
2023/11/13 00:19:12;;;;;;;2.17;0.60;;;18.20;63.00;;;;;;6181582;23;20147;-81
2023/11/13 00:24:05;;;;;;;1.73;0.60;;;18.20;63.00;;;;;;6156001;23;20207;-82
2023/11/13 00:26:31;;;;;;;1.73;0.57;;;18.20;63.00;;;;;;6154434;23;20146;-83
2023/11/13 00:28:57;;;;;;;3.38;0.80;;;18.20;63.20;;;;;;6152058;23;20257;-83
2023/11/13 00:31:23;;;;;;;2.83;0.73;;;18.20;63.00;;;;;;6153310;23;20619;-82
2023/11/13 00:33:49;;;;;;;1.83;0.80;;;18.20;63.10;;;;;;6151948;23;20147;-81
2023/11/13 00:36:15;;;;;;;1.52;0.50;;;18.20;63.20;;;;;;6127831;23;20146;-82
2023/11/13 00:38:41;;;;;;;1.63;0.70;;;18.20;63.40;;;;;;6150775;23;20131;-83
2023/11/13 00:41:11;;;;;;;1.35;0.60;;;18.20;63.40;;;;;;6126996;23;20171;-83
2023/11/13 00:43:36;;;;;;;2.45;0.50;;;18.10;63.40;;;;;;6151183;23;20139;-82
2023/11/13 00:46:03;;;;;;;1.52;0.47;;;18.20;63.40;;;;;;6150222;23;20132;-81
2023/11/13 00:48:28;;;;;;;1.08;0.60;;;18.10;63.50;;;;;;6152639;23;20132;-83
2023/11/13 00:50:54;;;;;;;2.78;0.60;;;18.10;63.50;;;;;;6127323;23;20819;-81
2023/11/13 01:06:33;;;;;;;0.90;0.52;;;18.10;63.60;;;;;;6156750;23;20273;-82
2023/11/13 01:08:58;;;;;;;2.38;0.63;;;18.10;63.60;;;;;;6154950;23;20167;-83
2023/11/13 01:47:47;;;;;;;0.95;0.57;;;18.10;63.60;;;;;;6157822;23;20662;-81
2023/11/13 01:50:13;;;;;;;1.45;0.50;;;18.10;63.50;;;;;;6156213;23;20171;-82
2023/11/13 01:52:38;;;;;;;0.70;0.60;;;18.10;63.70;;;;;;6155840;23;20135;-81
2023/11/13 01:55:05;;;;;;;3.53;0.60;;;18.10;63.70;;;;;;6155637;23;20135;-83
2023/11/13 05:24:32;;;;;;;0.68;0.60;;;17.90;63.90;;;;;;6156667;23;20295;-83
2023/11/13 05:26:58;;;;;;;0.98;0.60;;;17.90;63.80;;;;;;6154308;23;20139;-82
2023/11/13 05:29:26;;;;;;;0.45;0.45;;;17.90;63.80;;;;;;6153000;23;20566;-83
2023/11/13 05:34:42;;;;;;;0.68;0.52;;;17.90;63.90;;;;;;6066171;23;20241;-83
2023/11/13 05:37:09;;;;;;;0.73;0.60;;;17.90;64.00;;;;;;6042344;23;20137;-82
2023/11/13 05:39:35;;;;;;;0.57;0.50;;;17.90;63.90;;;;;;6064712;23;20233;-83
2023/11/13 05:42:03;;;;;;;0.65;0.60;;;17.90;63.80;;;;;;6101401;23;20219;-82
2023/11/13 05:44:29;;;;;;;0.93;0.60;;;17.90;64.00;;;;;;6125367;23;20144;-82
2023/11/13 06:10:11;;;;;;;0.75;0.70;;;17.90;63.70;;;;;;6214597;23;20194;-82
2023/11/13 06:12:40;;;;;;;0.60;0.50;;;17.90;63.80;;;;;;6213778;23;20130;-82
2023/11/13 06:15:13;;;;;;;0.70;0.65;;;17.90;63.50;;;;;;6190312;23;20172;-82
2023/11/13 06:17:40;;;;;;;1.63;0.60;;;17.90;63.60;;;;;;6190422;23;20157;-82
2023/11/13 06:20:06;;;;;;;0.40;0.40;;;17.90;63.60;;;;;;6189850;23;20169;-82
2023/11/13 06:22:32;;;;;;;0.40;0.40;;;17.90;63.50;;;;;;6189305;23;20206;-82
2023/11/13 06:24:58;;;;;;;0.70;0.57;;;17.90;63.50;;;;;;6213109;23;20161;-81
2023/11/13 06:27:23;;;;;;;1.05;0.50;;;17.90;63.80;;;;;;6164154;23;20142;-82
2023/11/13 06:29:50;;;;;;;0.65;0.38;;;17.90;63.60;;;;;;6189016;23;20177;-83
2023/11/13 06:32:18;;;;;;;1.23;0.60;;;17.90;63.50;;;;;;6163482;23;20150;-82
2023/11/13 06:34:44;;;;;;;0.63;0.50;;;17.90;63.80;;;;;;6163383;23;20490;-82
2023/11/13 06:37:10;;;;;;;0.70;0.57;;;17.90;63.80;;;;;;6163589;23;20213;-83
2023/11/13 06:39:36;;;;;;;0.68;0.57;;;17.90;63.70;;;;;;6190164;23;20519;-81
2023/11/13 06:42:07;;;;;;;1.35;0.70;;;17.90;63.50;;;;;;6164900;23;20147;-83
2023/11/13 06:44:39;;;;;;;0.80;0.63;;;17.90;63.70;;;;;;6157266;23;20241;-83
2023/11/13 07:42:40;;;;;;;1.45;0.50;;;18.30;60.60;;;;;;6155583;23;20239;-81
2023/11/13 07:45:07;;;;;;;1.25;0.45;;;18.30;61.30;;;;;;6130299;23;20198;-80
2023/11/13 07:47:33;;;;;;;0.57;0.57;;;18.20;61.50;;;;;;6160158;23;20135;-82
2023/11/13 07:50:22;;;;;;;1.48;0.50;;;18.20;61.10;;;;;;6164486;23;20235;-84
2023/11/13 07:52:50;;;;;;;0.55;0.40;;;18.30;60.50;;;;;;6135765;23;20486;-83
2023/11/13 07:55:18;;;;;;;1.05;0.50;;;18.30;61.00;;;;;;6135684;23;20151;-82
2023/11/13 07:57:46;;;;;;;0.85;0.40;;;18.30;60.90;;;;;;6162310;23;20138;-84
2023/11/13 08:00:13;;;;;;;0.45;0.45;;;18.30;60.70;;;;;;6079637;23;20614;-81
2023/11/13 08:02:42;;;;;;;0.75;0.50;;;18.30;60.80;;;;;;6079881;23;20568;-83
2023/11/13 08:05:29;;;;;;;0.30;0.30;;;18.40;60.90;;;;;;6080612;23;20155;-85
2023/11/13 08:07:54;;;;;;;1.10;0.50;;;18.40;61.10;;;;;;6083299;23;20184;-84
2023/11/13 08:10:20;;;;;;;0.90;0.50;;;18.30;61.10;;;;;;6108578;23;20179;-84
2023/11/13 08:12:49;;;;;;;1.27;0.55;;;18.30;61.10;;;;;;6060690;23;20531;-83
2023/11/13 08:15:15;;;;;;;0.68;0.50;;;18.30;60.30;;;;;;6060258;23;20176;-83
2023/11/13 08:17:42;;;;;;;0.40;0.40;;;18.30;61.50;;;;;;6056896;23;20539;-84
2023/11/13 08:20:13;;;;;;;1.58;0.40;;;18.30;60.70;;;;;;6083571;23;20152;-84
2023/11/13 08:22:41;;;;;;;0.57;0.43;;;18.40;61.10;;;;;;6062470;23;20133;-83
2023/11/13 08:25:17;;;;;;;2.53;0.40;;;18.40;60.50;;;;;;6085552;23;20151;-84
2023/11/13 08:27:43;;;;;;;0.80;0.40;;;18.40;60.60;;;;;;6063574;23;20207;-84
2023/11/13 08:30:16;;;;;;;0.43;0.43;;;18.50;59.50;;;;;;6085692;23;20195;-83
2023/11/13 08:32:42;;;;;;;0.55;0.32;;;18.50;59.80;;;;;;6160145;23;20156;-83
2023/11/13 08:35:12;;;;;;;3.03;0.47;;;18.50;59.20;;;;;;6159472;23;20159;-81
2023/11/13 08:37:38;;;;;;;0.50;0.50;;;18.50;59.70;;;;;;6135063;23;20274;-83
2023/11/13 08:40:12;;;;;;;1.33;0.40;;;18.50;59.70;;;;;;6159897;23;20155;-82
2023/11/13 08:42:44;;;;;;;1.13;0.30;;;18.60;59.80;;;;;;6157704;23;20222;-83
2023/11/13 08:45:12;;;;;;;1.65;0.70;;;18.50;59.70;;;;;;6109580;23;20277;-84
2023/11/13 08:48:15;;;;;;;1.50;0.40;;;18.50;59.90;;;;;;6161116;23;20151;-84
2023/11/13 08:50:44;;;;;;;1.30;0.70;;;18.60;59.70;;;;;;6152311;23;20246;-84
2023/11/13 08:53:09;;;;;;;0.82;0.65;;;18.60;59.90;;;;;;6137997;23;20659;-84
2023/11/13 08:55:37;;;;;;;1.95;0.40;;;18.60;60.00;;;;;;6162129;23;20135;-84
2023/11/13 08:58:07;;;;;;;1.55;0.40;;;18.60;59.70;;;;;;6166419;23;20128;-84
2023/11/13 09:00:41;;;;;;;1.60;0.50;;;18.60;60.30;;;;;;6140280;23;20151;-84
2023/11/13 09:03:16;;;;;;;1.70;0.40;;;18.70;59.70;;;;;;6141914;23;20159;-84
2023/11/13 09:05:43;;;;;;;1.10;0.52;;;18.60;60.20;;;;;;6139414;23;20143;-84
2023/11/13 09:08:14;;;;;;;1.33;0.40;;;18.70;60.30;;;;;;6082077;23;20234;-83
2023/11/13 09:10:44;;;;;;;1.83;0.50;;;18.60;60.90;;;;;;6081871;23;20701;-85
2023/11/13 09:13:10;;;;;;;1.95;0.50;;;18.60;61.00;;;;;;6085702;23;20156;-82
2023/11/13 09:15:39;;;;;;;2.63;0.50;;;18.60;60.00;;;;;;6108755;23;20139;-86
2023/11/13 09:18:05;;;;;;;3.70;0.70;;;18.60;60.30;;;;;;6108178;23;20132;-85
2023/11/13 09:20:34;;;;;;;3.88;0.47;;;18.70;59.70;;;;;;6055784;23;20151;-81
2023/11/13 09:23:04;;;;;;;3.33;0.40;;;18.70;60.30;;;;;;6078089;23;20495;-83
2023/11/13 09:25:31;;;;;;;4.05;0.43;;;18.60;60.00;;;;;;6056132;23;20204;-84
2023/11/13 09:28:51;;;;;;;1.10;0.60;;;18.60;60.50;;;;;;6058627;23;20144;-85
2023/11/13 09:31:04;;;;;;;0.68;0.55;;;18.60;60.90;;;;;;6083575;23;20222;-85
2023/11/13 09:33:30;;;;;;;3.53;0.55;;;18.60;60.60;;;;;;6081710;23;20156;-83
2023/11/13 09:35:56;;;;;;;2.63;0.60;;;18.60;60.50;;;;;;6080744;23;20148;-84
2023/11/13 09:38:22;;;;;;;0.55;0.40;;;18.60;60.70;;;;;;6131891;23;20147;-83
2023/11/13 09:40:48;;;;;;;1.40;0.50;;;18.70;59.90;;;;;;6081344;23;20152;-85
2023/11/13 09:43:18;;;;;;;0.50;0.50;;;18.70;60.40;;;;;;6056430;23;20210;-83
2023/11/13 09:45:45;;;;;;;2.83;0.57;;;18.60;60.90;;;;;;6077753;23;20199;-84
2023/11/13 09:48:15;;;;;;;6.95;0.43;;;18.60;60.40;;;;;;6101908;23;20147;-83
2023/11/13 09:51:58;;;;;;;0.55;0.40;;;18.70;60.70;;;;;;6054847;23;20195;-83
2023/11/13 09:54:08;;;;;;;1.38;0.30;;;18.80;59.90;;;;;;6039216;23;20236;-84
2023/11/13 09:56:38;;;;;;;0.80;0.55;;;18.80;60.50;;;;;;6024914;23;20161;-82
2023/11/13 09:59:08;;;;;;;4.78;0.60;;;18.70;61.00;;;;;;5998277;23;20185;-85
2023/11/13 10:01:35;;;;;;;6.45;0.60;;;18.70;60.90;;;;;;6000028;23;20154;-83
2023/11/13 10:04:04;;;;;;;1.75;0.50;;;18.70;60.50;;;;;;6047035;23;20611;-83
2023/11/13 10:06:52;;;;;;;1.65;0.47;;;18.70;60.70;;;;;;6027478;23;20287;-86
2023/11/13 10:09:22;;;;;;;2.13;0.45;;;18.70;60.90;;;;;;6010514;23;20256;-86
2023/11/13 10:13:10;;;;;;;0.75;0.30;;;18.70;60.30;;;;;;6038582;23;20191;-88
2023/11/13 10:15:30;;;;;;;2.33;0.52;;;18.70;60.80;;;;;;6032270;23;20158;-86
2023/11/13 10:18:04;;;;;;;3.05;0.50;;;18.70;60.50;;;;;;6020167;23;20154;-87
2023/11/13 10:20:49;;;;;;;4.40;0.50;;;18.70;60.50;;;;;;6007508;23;20189;-86
2023/11/13 10:34:03;;;;;;;4.13;0.77;;;18.70;61.00;;;;;;6167446;23;20218;-86
2023/11/13 10:37:06;;;;;;;2.08;0.73;;;18.60;61.30;;;;;;6144848;23;20586;-84
2023/11/13 10:39:58;;;;;;;3.85;0.60;;;18.60;60.90;;;;;;6155916;23;20152;-86
2023/11/13 10:42:35;;;;;;;2.03;0.60;;;18.60;60.90;;;;;;6106720;23;20157;-85
2023/11/13 10:45:15;;;;;;;2.47;0.70;;;18.60;61.70;;;;;;6049625;23;20177;-86
2023/11/13 10:47:59;;;;;;;3.17;0.60;;;18.60;61.10;;;;;;6047229;23;20161;-87
2023/11/13 10:50:37;;;;;;;3.50;0.50;;;18.60;61.20;;;;;;5954552;24;20194;-85
2023/11/13 10:53:07;;;;;;;3.47;0.93;;;18.60;60.90;;;;;;5964454;24;20156;-84
2023/11/13 10:55:35;;;;;;;1.13;0.40;;;18.60;60.80;;;;;;5962033;24;20148;-83
2023/11/13 10:58:01;;;;;;;4.60;0.70;;;18.60;60.80;;;;;;5958029;24;20160;-84
2023/11/13 11:00:29;;;;;;;5.75;0.70;;;18.60;60.40;;;;;;5957506;24;20163;-84
2023/11/13 11:02:56;;;;;;;3.28;0.40;;;18.60;60.80;;;;;;5959591;24;20165;-84
2023/11/13 11:05:27;;;;;;;2.97;0.95;;;18.60;60.60;;;;;;5961510;24;20243;-85
2023/11/13 11:08:17;;;;;;;2.50;0.50;;;18.60;60.80;;;;;;5958173;24;20152;-88
2023/11/13 11:10:43;;;;;;;3.92;0.68;;;18.60;60.40;;;;;;5935544;24;20221;-84
2023/11/13 11:13:11;;;;;;;4.25;0.70;;;18.60;60.80;;;;;;5957208;24;20155;-85
2023/11/13 11:16:15;;;;;;;5.82;0.60;;;18.50;60.90;;;;;;5953176;24;20182;-85
2023/11/13 11:19:05;;;;;;;5.10;0.80;;;18.50;61.00;;;;;;5978698;23;20502;-83
2023/11/13 11:25:28;;;;;;;4.47;0.73;;;18.50;61.20;;;;;;6084945;23;20153;-84
2023/11/13 11:28:48;;;;;;;4.43;0.80;;;18.40;61.00;;;;;;6103991;23;20149;-86
2023/11/13 11:31:54;;;;;;;2.53;0.60;;;18.50;60.70;;;;;;6100624;23;20234;-84
2023/11/13 11:37:16;;;;;;;3.83;0.60;;;18.60;60.40;;;;;;6047602;23;20150;-85
2023/11/13 11:39:46;;;;;;;4.00;0.70;;;18.60;60.30;;;;;;6044818;23;20158;-84
2023/11/13 11:42:21;;;;;;;3.40;0.50;;;18.50;60.40;;;;;;6015639;23;20165;-84
2023/11/13 11:45:02;;;;;;;4.53;0.60;;;18.60;60.30;;;;;;5924848;23;20165;-82
2023/11/13 11:47:36;;;;;;;3.55;0.60;;;18.50;60.40;;;;;;5984596;23;20147;-86
2023/11/13 11:50:18;;;;;;;3.22;0.65;;;18.60;60.30;;;;;;5941498;23;20186;-86
2023/11/13 11:52:51;;;;;;;6.00;0.77;;;18.50;59.80;;;;;;5954322;24;20152;-85
2023/11/13 11:55:22;;;;;;;1.33;0.47;;;18.60;60.40;;;;;;5974968;23;20169;-84
2023/11/13 11:57:48;;;;;;;4.45;0.70;;;18.50;60.70;;;;;;5988790;23;20638;-84
2023/11/13 12:00:20;;;;;;;4.90;0.70;;;18.60;60.30;;;;;;6012783;23;20711;-84
2023/11/13 12:02:51;;;;;;;1.50;0.60;;;18.60;60.10;;;;;;5993096;23;20225;-83
2023/11/13 12:05:21;;;;;;;1.95;0.43;;;18.60;60.90;;;;;;5997571;23;20154;-86
2023/11/13 12:07:50;;;;;;;2.55;0.52;;;18.70;60.50;;;;;;5997269;23;20222;-84
2023/11/13 12:10:20;;;;;;;1.92;0.68;;;18.60;60.00;;;;;;6016119;23;20170;-84
2023/11/13 12:12:46;;;;;;;6.30;1.00;;;18.60;59.90;;;;;;6024322;23;20203;-84
2023/11/13 12:15:26;;;;;;;2.45;0.50;;;18.60;59.70;;;;;;6049024;23;20643;-84
2023/11/13 12:17:56;;;;;;;2.15;0.40;;;18.70;59.80;;;;;;6119628;23;20151;-85
2023/11/13 12:20:26;;;;;;;2.58;0.50;;;18.60;60.10;;;;;;6126859;23;20163;-84
2023/11/13 12:22:52;;;;;;;4.22;0.75;;;18.60;60.00;;;;;;6131713;23;20159;-84
2023/11/13 12:25:18;;;;;;;3.80;0.50;;;18.60;60.00;;;;;;6160691;23;20138;-85
2023/11/13 12:27:46;;;;;;;3.63;0.60;;;18.60;59.80;;;;;;6131441;23;20626;-84
2023/11/13 12:30:24;;;;;;;4.32;0.70;;;18.60;60.10;;;;;;6162390;23;20175;-84
2023/11/13 12:32:51;;;;;;;2.45;0.40;;;18.70;60.00;;;;;;6138821;23;20195;-84
2023/11/13 12:35:17;;;;;;;5.03;0.50;;;18.60;59.70;;;;;;6135641;23;20201;-84
2023/11/13 12:37:50;;;;;;;2.55;0.40;;;18.60;60.00;;;;;;6138993;23;20139;-85
2023/11/13 12:40:16;;;;;;;0.93;0.60;;;18.60;59.60;;;;;;6109632;23;20163;-84
2023/11/13 12:42:43;;;;;;;0.60;0.38;;;18.60;59.90;;;;;;6134644;23;20143;-85
2023/11/13 12:45:12;;;;;;;0.50;0.30;;;18.60;59.40;;;;;;6162613;23;20555;-85
2023/11/13 12:47:43;;;;;;;0.98;0.40;;;18.70;59.30;;;;;;6135565;23;20143;-84
2023/11/13 12:50:16;;;;;;;2.15;0.47;;;18.70;59.40;;;;;;6124939;23;20191;-85
2023/11/13 12:52:44;;;;;;;3.08;0.50;;;18.70;59.50;;;;;;6080965;23;20214;-85
2023/11/13 12:55:19;;;;;;;1.88;0.52;;;18.70;59.30;;;;;;6057305;23;20178;-85
2023/11/13 12:57:46;;;;;;;1.75;0.38;;;18.70;59.50;;;;;;6105547;23;20135;-85
2023/11/13 13:00:15;;;;;;;1.33;0.43;;;18.70;59.20;;;;;;6105586;23;20141;-85
2023/11/13 13:02:44;;;;;;;1.65;0.52;;;18.60;59.00;;;;;;6084029;23;20129;-85
2023/11/13 13:05:11;;;;;;;6.32;0.80;;;18.70;59.30;;;;;;6080144;23;20132;-84
2023/11/13 13:07:39;;;;;;;1.75;0.60;;;18.70;59.20;;;;;;6086491;23;20152;-85
2023/11/13 13:10:11;;;;;;;0.90;0.60;;;18.70;58.90;;;;;;6103231;23;20203;-86
2023/11/13 13:12:39;;;;;;;3.25;0.43;;;18.70;59.50;;;;;;6057494;23;20156;-84
2023/11/13 13:15:08;;;;;;;1.08;0.50;;;18.70;58.90;;;;;;6078718;23;20183;-84
2023/11/13 13:17:40;;;;;;;1.77;0.52;;;18.70;59.20;;;;;;6102649;23;20136;-83
2023/11/13 13:20:18;;;;;;;2.42;0.45;;;18.70;57.50;;;;;;6079878;23;20248;-84
2023/11/13 13:22:48;;;;;;;0.55;0.43;;;18.90;57.90;;;;;;6082165;23;20175;-84
2023/11/13 13:25:14;;;;;;;1.38;0.40;;;19.00;57.30;;;;;;6104480;23;20179;-83
2023/11/13 13:27:40;;;;;;;1.08;0.40;;;19.00;57.50;;;;;;6076580;23;20141;-84
2023/11/13 13:30:06;;;;;;;1.30;0.50;;;19.00;57.30;;;;;;6076416;23;20949;-83
2023/11/13 13:32:33;;;;;;;1.27;0.32;;;18.90;57.80;;;;;;6100408;23;20195;-83
2023/11/13 13:35:00;;;;;;;0.45;0.38;;;18.90;57.80;;;;;;6157057;23;20825;-83
2023/11/13 13:37:27;;;;;;;0.47;0.40;;;18.90;57.80;;;;;;6134278;23;20151;-83
2023/11/13 13:39:55;;;;;;;0.32;0.25;;;18.90;57.60;;;;;;6143668;23;20155;-85
2023/11/13 13:42:25;;;;;;;0.77;0.30;;;18.90;58.10;;;;;;6170133;23;20147;-85
2023/11/13 13:44:51;;;;;;;0.60;0.32;;;18.90;57.80;;;;;;6144810;23;20147;-84
2023/11/13 13:47:24;;;;;;;0.93;0.52;;;18.90;57.80;;;;;;6142263;23;20150;-85
2023/11/13 13:49:50;;;;;;;1.10;0.40;;;18.90;57.40;;;;;;6138966;23;20190;-85
2023/11/13 13:52:30;;;;;;;2.70;0.40;;;18.90;57.40;;;;;;6160942;23;20136;-84
2023/11/13 13:55:27;;;;;;;2.35;0.38;;;19.00;57.60;;;;;;6139029;23;20597;-85
2023/11/13 13:57:52;;;;;;;1.05;0.50;;;19.00;57.50;;;;;;6109840;23;20203;-86
2023/11/13 14:00:28;;;;;;;0.40;0.30;;;18.90;58.10;;;;;;6089289;23;20160;-85
2023/11/13 14:02:55;;;;;;;0.52;0.47;;;18.90;57.70;;;;;;6109360;23;20171;-85
2023/11/13 14:05:25;;;;;;;0.47;0.47;;;18.90;57.10;;;;;;6106279;23;20168;-85
2023/11/13 14:08:09;;;;;;;;;;;;;;;;;;;;;
2023/11/13 14:10:36;;;;;;;0.50;0.38;;;19.00;57.30;;;;;;6082431;23;20202;-84
2023/11/13 14:13:11;;;;;;;0.35;0.30;;;19.00;57.50;;;;;;6107343;23;20576;-84
2023/11/13 14:15:59;;;;;;;;;;;;;;;;;;;;;
2023/11/13 14:18:32;;;;;;;2.17;0.52;;;19.00;56.80;;;;;;6080997;23;20180;-84
2023/11/13 14:20:58;;;;;;;0.68;0.40;;;19.10;56.60;;;;;;6096830;23;20152;-81
2023/11/13 14:23:25;;;;;;;1.25;0.50;;;19.00;56.90;;;;;;6124995;23;20166;-82
2023/11/13 14:25:54;;;;;;;0.60;0.60;;;19.10;56.80;;;;;;6156487;23;20132;-81
2023/11/13 14:28:21;;;;;;;0.57;0.50;;;19.00;56.70;;;;;;6155977;23;20290;-83
2023/11/13 14:30:50;;;;;;;0.73;0.40;;;19.00;56.60;;;;;;6106231;23;20205;-83
2023/11/13 14:33:22;;;;;;;0.40;0.40;;;19.00;57.30;;;;;;6083357;23;20286;-83
2023/11/13 14:35:48;;;;;;;1.55;0.45;;;19.00;56.90;;;;;;6097433;23;20239;-80
2023/11/13 14:38:14;;;;;;;1.50;0.30;;;19.10;56.40;;;;;;6092163;23;20184;-79
2023/11/13 14:40:40;;;;;;;1.85;0.40;;;19.00;56.50;;;;;;6066030;23;20157;-83
2023/11/13 14:43:09;;;;;;;0.90;0.45;;;19.10;56.50;;;;;;6069186;23;20141;-82
2023/11/13 14:45:38;;;;;;;3.50;0.50;;;19.00;56.70;;;;;;5996583;23;20157;-83
2023/11/13 14:48:22;;;;;;;1.85;0.40;;;19.10;56.70;;;;;;6069005;23;20668;-82
2023/11/13 14:50:51;;;;;;;0.60;0.40;;;19.00;57.10;;;;;;5977070;24;20562;-83
2023/11/13 14:53:21;;;;;;;2.25;0.40;;;19.00;57.10;;;;;;5953035;23;20204;-86
2023/11/13 14:55:49;;;;;;;1.17;0.50;;;18.90;56.90;;;;;;5964719;23;20155;-85
2023/11/13 14:58:16;;;;;;;4.80;1.23;;;18.90;57.30;;;;;;5967876;23;20158;-84
2023/11/13 15:00:43;;;;;;;1.65;0.43;;;18.90;57.10;;;;;;5965233;23;20159;-83
2023/11/13 15:03:09;;;;;;;0.50;0.32;;;18.90;57.00;;;;;;5963698;23;20162;-85
2023/11/13 15:05:39;;;;;;;0.52;0.40;;;18.90;57.30;;;;;;6004946;23;20151;-82
2023/11/13 15:08:08;;;;;;;0.30;0.30;;;18.90;56.40;;;;;;6006716;23;20174;-83
2023/11/13 15:10:35;;;;;;;3.70;0.50;;;18.90;56.40;;;;;;6006313;23;20201;-83
2023/11/13 15:13:28;;;;;;;1.17;0.50;;;18.90;56.80;;;;;;5971310;23;20236;-84
2023/11/13 15:15:53;;;;;;;1.85;0.43;;;18.90;56.90;;;;;;6012078;23;20640;-81
2023/11/13 15:18:21;;;;;;;0.57;0.50;;;18.90;57.40;;;;;;5988894;23;20161;-86
2023/11/13 15:20:47;;;;;;;0.30;0.30;;;18.80;57.50;;;;;;6029751;23;20660;-85
2023/11/13 15:23:13;;;;;;;2.58;0.60;;;18.80;57.60;;;;;;6153327;23;20214;-84
2023/11/13 15:25:41;;;;;;;1.38;0.40;;;18.80;57.60;;;;;;6152920;23;20163;-85
2023/11/13 15:28:07;;;;;;;0.47;0.30;;;18.80;57.50;;;;;;6078921;23;20158;-84
2023/11/13 15:30:35;;;;;;;1.40;0.45;;;18.80;57.40;;;;;;6129689;23;20653;-83
2023/11/13 15:33:03;;;;;;;0.43;0.40;;;18.80;57.00;;;;;;6130434;23;20194;-84
2023/11/13 15:35:30;;;;;;;1.42;0.30;;;18.80;57.00;;;;;;6154817;23;20155;-85
2023/11/13 15:37:56;;;;;;;1.15;0.40;;;18.80;58.70;;;;;;6155741;23;20134;-84
2023/11/13 15:40:22;;;;;;;0.98;0.40;;;18.70;58.50;;;;;;6130028;23;20761;-83
2023/11/13 15:42:49;;;;;;;0.28;0.28;;;18.70;58.80;;;;;;6156068;23;20143;-83
2023/11/13 15:45:15;;;;;;;0.55;0.32;;;18.70;58.60;;;;;;6130959;23;20154;-83
2023/11/13 15:47:50;;;;;;;0.60;0.30;;;18.60;58.50;;;;;;6131215;23;20143;-85
2023/11/13 15:50:20;;;;;;;2.50;0.40;;;18.60;59.10;;;;;;6155699;23;20166;-84
2023/11/13 15:52:46;;;;;;;1.77;0.68;;;18.60;58.70;;;;;;6135522;23;20163;-84
2023/11/13 15:55:12;;;;;;;2.50;0.50;;;18.60;58.80;;;;;;6133144;23;20155;-84
2023/11/13 15:57:38;;;;;;;1.30;0.50;;;18.70;58.60;;;;;;6132412;23;20158;-85
2023/11/13 16:00:06;;;;;;;0.70;0.55;;;18.50;59.30;;;;;;6107588;23;20155;-85
2023/11/13 16:02:32;;;;;;;0.75;0.40;;;18.60;58.60;;;;;;6108462;23;20494;-85
2023/11/13 16:04:58;;;;;;;2.50;0.40;;;18.70;58.70;;;;;;6108521;23;20159;-85
2023/11/13 16:07:24;;;;;;;1.05;0.50;;;18.70;59.00;;;;;;6158292;23;20135;-82
2023/11/13 16:09:52;;;;;;;1.05;0.35;;;18.60;58.60;;;;;;6108959;23;20187;-84
2023/11/13 16:12:26;;;;;;;0.60;0.38;;;18.70;59.20;;;;;;6110085;23;20257;-84
2023/11/13 16:14:56;;;;;;;0.47;0.22;;;18.70;59.10;;;;;;6108702;23;20150;-84
2023/11/13 16:17:22;;;;;;;0.55;0.43;;;18.70;58.50;;;;;;6132563;23;20155;-84
2023/11/13 16:19:48;;;;;;;0.82;0.40;;;18.70;59.10;;;;;;6133747;23;20657;-83
2023/11/13 16:22:16;;;;;;;0.60;0.40;;;18.80;58.10;;;;;;6157875;23;20136;-84
2023/11/13 16:24:42;;;;;;;0.65;0.60;;;18.80;58.00;;;;;;6109225;23;20158;-85
2023/11/13 16:27:07;;;;;;;1.25;0.40;;;18.80;57.40;;;;;;6155682;23;20586;-85
2023/11/13 16:29:33;;;;;;;0.47;0.47;;;18.90;57.70;;;;;;6160600;23;20182;-86
2023/11/13 16:32:12;;;;;;;6.07;0.50;;;18.90;58.20;;;;;;6136307;23;20611;-88
2023/11/13 16:34:39;;;;;;;0.52;0.40;;;18.80;58.60;;;;;;6164196;23;20150;-86
2023/11/13 16:37:05;;;;;;;0.73;0.57;;;18.80;58.40;;;;;;6139013;23;20207;-86
2023/11/13 16:39:34;;;;;;;2.17;0.43;;;18.80;59.00;;;;;;6168204;23;20139;-86
2023/11/13 16:42:03;;;;;;;1.48;0.45;;;18.80;59.00;;;;;;6166663;23;20155;-85
2023/11/13 16:44:29;;;;;;;0.80;0.60;;;18.80;58.80;;;;;;6136869;23;20147;-85
2023/11/13 16:46:55;;;;;;;2.17;0.47;;;18.80;58.50;;;;;;6135612;23;20155;-84
2023/11/13 16:49:21;;;;;;;0.47;0.43;;;18.80;58.60;;;;;;6159810;23;20151;-84
2023/11/13 16:52:17;;;;;;;0.77;0.50;;;18.80;58.20;;;;;;6159821;23;20145;-83
2023/11/13 16:54:57;;;;;;;1.52;0.60;;;18.80;58.30;;;;;;6151252;23;20222;-83
2023/11/13 16:57:24;;;;;;;1.33;0.47;;;18.90;58.10;;;;;;6162556;23;20132;-85
2023/11/13 16:59:51;;;;;;;1.23;0.50;;;18.90;58.20;;;;;;6160358;23;20143;-85
2023/11/13 17:02:18;;;;;;;2.13;0.60;;;18.80;58.60;;;;;;6135686;23;20485;-83
2023/11/13 17:04:56;;;;;;;;;;;;;;;;;;;;;
2023/11/13 17:07:25;;;;;;;1.92;0.50;;;18.90;58.60;;;;;;6129208;23;20658;-83
2023/11/13 17:09:51;;;;;;;1.02;0.60;;;18.90;58.40;;;;;;6157970;23;20184;-83
2023/11/13 17:12:35;;;;;;;2.25;0.60;;;18.90;59.00;;;;;;6159646;23;20139;-84
2023/11/13 17:15:01;;;;;;;2.90;0.60;;;18.90;58.70;;;;;;6133671;23;20162;-84
2023/11/13 17:17:27;;;;;;;2.72;0.57;;;18.90;58.50;;;;;;6131226;23;20196;-83
2023/11/13 17:19:52;;;;;;;2.78;0.80;;;18.90;58.70;;;;;;6133477;23;20148;-84
2023/11/13 17:22:18;;;;;;;5.13;0.57;;;18.90;58.80;;;;;;6131372;23;20151;-83
2023/11/13 17:24:44;;;;;;;2.45;0.75;;;18.90;59.20;;;;;;6157725;23;20178;-83
2023/11/13 17:27:10;;;;;;;1.27;0.57;;;18.90;59.20;;;;;;6157577;23;20143;-82
2023/11/13 17:29:37;;;;;;;2.67;0.70;;;18.90;59.10;;;;;;6134511;23;20177;-82
2023/11/13 17:32:04;;;;;;;3.88;0.80;;;18.90;59.60;;;;;;6156089;23;20136;-82
2023/11/13 17:34:31;;;;;;;2.20;0.68;;;18.80;59.70;;;;;;6131678;23;20182;-82
2023/11/13 17:36:57;;;;;;;3.47;0.90;;;18.80;59.80;;;;;;6158362;23;20274;-83
2023/11/13 17:39:24;;;;;;;2.60;0.80;;;18.90;60.00;;;;;;6133252;23;20148;-83
2023/11/13 17:41:50;;;;;;;2.20;0.63;;;18.80;59.80;;;;;;6155285;23;20641;-83
2023/11/13 17:44:19;;;;;;;2.28;0.68;;;18.80;59.70;;;;;;6131622;23;20140;-86
2023/11/13 17:46:49;;;;;;;1.67;0.73;;;18.80;60.00;;;;;;6105764;23;20243;-84
2023/11/13 17:49:23;;;;;;;2.65;0.60;;;18.80;60.20;;;;;;6104186;23;20186;-84
2023/11/13 17:51:50;;;;;;;4.90;0.70;;;18.80;60.40;;;;;;6106513;23;20280;-84
2023/11/13 17:54:16;;;;;;;2.00;0.70;;;18.80;59.80;;;;;;6077332;23;20155;-85
2023/11/13 17:56:48;;;;;;;3.50;0.70;;;18.80;60.10;;;;;;6101928;23;20152;-83
2023/11/13 17:59:14;;;;;;;3.17;0.88;;;18.80;59.80;;;;;;6102062;23;20152;-84
2023/11/13 18:01:46;;;;;;;1.98;0.80;;;18.80;59.90;;;;;;6077656;23;20160;-84
2023/11/13 18:04:12;;;;;;;2.22;0.75;;;18.80;59.80;;;;;;6080118;23;20216;-84
2023/11/13 18:06:45;;;;;;;1.65;0.70;;;18.70;59.60;;;;;;6101646;23;20152;-83
2023/11/13 18:09:12;;;;;;;2.33;0.80;;;18.70;59.30;;;;;;6101465;23;20592;-84
2023/11/13 18:11:46;;;;;;;4.43;1.00;;;18.70;58.60;;;;;;6078435;23;20230;-85
2023/11/13 18:14:14;;;;;;;5.30;1.00;;;18.80;58.40;;;;;;6079899;23;20265;-85
2023/11/13 18:16:42;;;;;;;6.45;1.20;;;18.80;58.00;;;;;;6107262;23;20234;-86
2023/11/13 18:19:12;;;;;;;4.45;1.25;;;18.80;58.60;;;;;;6134759;23;20201;-85
2023/11/13 18:21:42;;;;;;;6.60;1.08;;;18.80;58.20;;;;;;6138202;23;20147;-85
2023/11/13 18:24:12;;;;;;;9.00;1.30;;;18.80;58.40;;;;;;6137371;23;20143;-84
2023/11/13 18:26:44;;;;;;;8.90;1.20;;;18.90;58.50;;;;;;6136760;23;20163;-86
2023/11/13 18:29:10;;;;;;;7.68;1.15;;;18.80;58.40;;;;;;6132945;23;20154;-85
2023/11/13 18:31:36;;;;;;;7.55;0.90;;;18.90;58.80;;;;;;6131693;23;20538;-84
2023/11/13 18:34:02;;;;;;;5.85;0.98;;;18.80;58.00;;;;;;6134211;23;20614;-84
2023/11/13 18:36:28;;;;;;;4.00;1.05;;;18.80;58.20;;;;;;6130980;23;20641;-83
2023/11/13 18:38:59;;;;;;;5.15;1.13;;;18.80;57.70;;;;;;6155248;23;20508;-84
2023/11/13 18:41:25;;;;;;;3.03;0.82;;;18.80;58.30;;;;;;6155782;23;20574;-85
2023/11/13 18:43:54;;;;;;;3.80;1.00;;;18.90;58.10;;;;;;6132875;23;20147;-84
2023/11/13 18:46:24;;;;;;;4.22;1.10;;;18.80;57.50;;;;;;6132613;23;20159;-85
2023/11/13 18:48:51;;;;;;;3.92;0.90;;;18.90;56.70;;;;;;6157135;23;20151;-85
2023/11/13 18:51:17;;;;;;;3.17;0.77;;;18.90;57.00;;;;;;6131177;23;20233;-83
2023/11/13 18:53:49;;;;;;;3.22;0.90;;;18.90;57.10;;;;;;6153620;23;20279;-86
2023/11/13 18:56:15;;;;;;;7.13;1.13;;;18.80;58.70;;;;;;6157064;23;20128;-84
2023/11/13 18:58:42;;;;;;;3.92;0.80;;;18.80;59.00;;;;;;6131971;23;20144;-84
2023/11/13 19:01:10;;;;;;;1.33;0.90;;;18.90;58.20;;;;;;6156053;23;20215;-82
2023/11/13 19:03:40;;;;;;;3.90;0.93;;;18.90;58.80;;;;;;6131957;23;20162;-83
2023/11/13 19:06:07;;;;;;;4.05;1.02;;;18.90;59.00;;;;;;6106601;23;20167;-85